createdAt,value
2022-09-24T00:00:21.710Z,9.87
2022-09-24T00:03:31.807Z,7.20
2022-09-24T00:06:24.958Z,9.50
2022-09-24T00:09:19.627Z,8.37
2022-09-24T00:12:13.410Z,9.20
2022-09-24T00:15:05.797Z,7.10
2022-09-24T00:17:58.173Z,7.23
2022-09-24T00:20:49.763Z,8.33
2022-09-24T00:23:41.796Z,8.05
2022-09-24T00:26:52.606Z,7.35
2022-09-24T00:29:45.454Z,7.57
2022-09-24T00:32:37.670Z,8.33
2022-09-24T00:35:31.570Z,8.73
2022-09-24T00:38:24.333Z,9.33
2022-09-24T00:41:16.446Z,9.50
2022-09-24T00:44:39.001Z,9.38
2022-09-24T00:47:37.386Z,8.35
2022-09-24T00:50:35.078Z,8.93
2022-09-24T00:53:32.092Z,9.05
2022-09-24T00:56:25.338Z,9.97
2022-09-24T00:59:19.918Z,8.53
2022-09-24T01:02:13.068Z,8.83
2022-09-24T01:05:06.395Z,8.20
2022-09-24T01:07:58.398Z,9.97
2022-09-24T01:11:02.506Z,10.00
2022-09-24T01:17:23.845Z,9.13
2022-09-24T01:20:51.106Z,8.30
2022-09-24T01:24:17.334Z,10.67
2022-09-24T01:27:12.397Z,9.70
2022-09-24T01:30:05.850Z,9.40
2022-09-24T01:32:58.336Z,9.40
2022-09-24T01:35:51.173Z,10.73
2022-09-24T01:38:44.044Z,10.07
2022-09-24T01:41:34.028Z,9.33
2022-09-24T01:44:23.193Z,8.93
2022-09-24T01:47:16.284Z,10.57
2022-09-24T01:50:08.370Z,12.80
2022-09-24T01:53:02.970Z,10.23
2022-09-24T01:55:57.394Z,10.13
2022-09-24T01:58:52.094Z,11.30
2022-09-24T02:01:47.481Z,9.63
2022-09-24T02:04:41.358Z,9.50
2022-09-24T02:07:35.325Z,8.30
2022-09-24T02:10:24.582Z,8.50
2022-09-24T02:13:16.324Z,8.17
2022-09-24T02:16:08.113Z,8.40
2022-09-24T02:19:00.845Z,9.07
2022-09-24T02:21:50.247Z,9.73
2022-09-24T02:24:47.333Z,8.73
2022-09-24T02:27:36.768Z,8.23
2022-09-24T02:30:25.524Z,14.17
2022-09-24T02:33:33.939Z,17.43
2022-09-24T02:36:24.438Z,16.00
2022-09-24T02:39:13.087Z,19.40
2022-09-24T02:42:05.029Z,14.37
2022-09-24T02:44:56.897Z,9.70
2022-09-24T02:47:45.697Z,9.93
2022-09-24T02:50:35.085Z,8.73
2022-09-24T02:53:23.207Z,8.77
2022-09-24T02:56:12.168Z,8.97
2022-09-24T02:59:01.927Z,11.43
2022-09-24T03:01:50.685Z,9.33
2022-09-24T03:04:39.248Z,9.40
2022-09-24T03:07:28.006Z,9.60
2022-09-24T03:10:17.331Z,9.90
2022-09-24T03:13:06.723Z,8.17
2022-09-24T03:15:55.332Z,10.40
2022-09-24T03:18:44.674Z,10.77
2022-09-24T03:21:34.045Z,9.80
2022-09-24T03:24:22.788Z,9.13
2022-09-24T03:27:11.537Z,10.80
2022-09-24T03:30:29.991Z,11.80
2022-09-24T03:33:20.182Z,9.03
2022-09-24T03:36:11.120Z,9.03
2022-09-24T03:38:59.736Z,8.53
2022-09-24T03:41:48.703Z,11.47
2022-09-24T03:44:37.449Z,8.87
2022-09-24T03:47:26.204Z,9.93
2022-09-24T03:50:15.165Z,9.50
2022-09-24T03:53:05.557Z,8.95
2022-09-24T03:55:56.710Z,9.33
2022-09-24T03:58:47.742Z,10.50
2022-09-24T04:01:37.991Z,12.00
2022-09-24T04:04:26.723Z,14.60
2022-09-24T04:07:14.862Z,11.97
2022-09-24T04:10:04.231Z,11.87
2022-09-24T04:12:52.981Z,11.33
2022-09-24T04:15:42.418Z,9.10
2022-09-24T04:18:34.639Z,10.67
2022-09-24T04:21:26.007Z,11.80
2022-09-24T04:24:15.577Z,9.07
2022-09-24T04:27:04.743Z,9.53
2022-09-24T04:29:53.905Z,9.43
2022-09-24T04:32:43.077Z,11.63
2022-09-24T04:35:35.363Z,12.17
2022-09-24T04:38:23.813Z,10.60
2022-09-24T04:41:15.301Z,9.43
2022-09-24T04:44:05.368Z,10.67
2022-09-24T04:47:01.229Z,10.07
2022-09-24T04:49:49.934Z,12.57
2022-09-24T04:52:38.278Z,9.77
2022-09-24T04:55:27.472Z,13.03
2022-09-24T04:58:15.749Z,11.53
2022-09-24T05:01:04.552Z,11.40
2022-09-24T05:03:53.304Z,10.80
2022-09-24T05:06:42.054Z,11.37
2022-09-24T05:09:31.566Z,11.93
2022-09-24T05:12:20.994Z,12.60
2022-09-24T05:15:12.357Z,17.67
2022-09-24T05:18:01.578Z,23.50
2022-09-24T05:20:50.126Z,22.17
2022-09-24T05:23:38.472Z,20.57
2022-09-24T05:26:45.247Z,16.30
2022-09-24T05:29:33.798Z,15.53
2022-09-24T05:32:23.582Z,14.50
2022-09-24T05:35:13.354Z,15.67
2022-09-24T05:38:01.821Z,12.63
2022-09-24T05:40:51.361Z,11.50
2022-09-24T05:43:41.258Z,14.30
2022-09-24T05:46:30.240Z,11.03
2022-09-24T05:49:19.550Z,10.77
2022-09-24T05:52:09.608Z,11.03
2022-09-24T05:54:58.351Z,16.87
2022-09-24T05:57:47.620Z,10.53
2022-09-24T06:00:37.068Z,9.50
2022-09-24T06:03:25.874Z,9.80
2022-09-24T06:06:14.980Z,10.53
2022-09-24T06:09:04.352Z,9.90
2022-09-24T06:11:54.337Z,11.63
2022-09-24T06:14:42.884Z,10.17
2022-09-24T06:17:32.049Z,9.47
2022-09-24T06:20:21.446Z,10.43
2022-09-24T06:23:09.964Z,9.67
2022-09-24T06:25:59.132Z,10.93
2022-09-24T06:28:47.486Z,11.00
2022-09-24T06:31:36.693Z,8.53
2022-09-24T06:34:24.805Z,10.40
2022-09-24T06:37:13.539Z,9.43
2022-09-24T06:40:03.152Z,8.83
2022-09-24T06:42:53.295Z,9.17
2022-09-24T06:45:44.054Z,8.53
2022-09-24T06:48:34.286Z,9.13
2022-09-24T06:51:23.048Z,9.47
2022-09-24T06:54:12.825Z,11.03
2022-09-24T06:57:03.749Z,9.23
2022-09-24T06:59:52.381Z,8.70
2022-09-24T07:02:41.979Z,10.47
2022-09-24T07:05:30.717Z,11.17
2022-09-24T07:08:19.290Z,10.53
2022-09-24T07:11:08.629Z,8.70
2022-09-24T07:13:57.382Z,11.03
2022-09-24T07:16:48.796Z,10.13
2022-09-24T07:19:37.965Z,7.70
2022-09-24T07:22:27.132Z,9.47
2022-09-24T07:25:15.681Z,7.53
2022-09-24T07:28:07.067Z,8.47
2022-09-24T07:31:00.727Z,9.00
2022-09-24T07:33:50.138Z,7.47
2022-09-24T07:36:38.891Z,7.47
2022-09-24T07:39:27.851Z,8.57
2022-09-24T07:42:16.587Z,6.20
2022-09-24T07:45:06.384Z,8.07
2022-09-24T07:48:01.209Z,7.13
2022-09-24T07:50:51.060Z,7.90
2022-09-24T07:53:39.411Z,6.70
2022-09-24T07:56:27.752Z,7.37
2022-09-24T07:59:16.507Z,6.67
2022-09-24T08:02:15.121Z,6.27
2022-09-24T08:05:03.437Z,7.27
2022-09-24T08:07:56.629Z,7.03
2022-09-24T08:10:45.666Z,11.27
2022-09-24T08:13:34.419Z,6.85
2022-09-24T08:16:23.437Z,10.00
2022-09-24T08:19:13.631Z,12.40
2022-09-24T08:22:04.898Z,9.83
2022-09-24T08:24:54.556Z,9.13
2022-09-24T08:27:42.697Z,7.23
2022-09-24T08:30:32.281Z,7.40
2022-09-24T08:33:20.620Z,7.93
2022-09-24T08:36:11.148Z,6.70
2022-09-24T08:38:59.765Z,6.97
2022-09-24T08:42:00.371Z,8.73
2022-09-24T08:45:09.633Z,7.87
2022-09-24T08:48:01.370Z,8.23
2022-09-24T08:51:00.457Z,7.53
2022-09-24T08:53:53.702Z,5.90
2022-09-24T08:56:46.326Z,8.27
2022-09-24T08:59:37.187Z,7.67
2022-09-24T09:02:42.435Z,6.27
2022-09-24T09:06:01.754Z,5.17
2022-09-24T09:09:07.196Z,5.30
2022-09-24T09:12:03.239Z,5.20
2022-09-24T09:14:58.839Z,4.87
2022-09-24T09:17:51.563Z,4.90
2022-09-24T09:20:43.216Z,3.67
2022-09-24T09:23:38.415Z,3.20
2022-09-24T09:26:27.504Z,6.40
2022-09-24T09:29:17.081Z,5.37
2022-09-24T09:32:14.440Z,5.37
2022-09-24T09:35:11.793Z,4.67
2022-09-24T09:38:09.353Z,6.33
2022-09-24T09:41:06.770Z,4.97
2022-09-24T09:44:01.948Z,6.97
2022-09-24T09:46:57.342Z,4.43
2022-09-24T09:49:48.874Z,4.13
2022-09-24T09:52:39.910Z,5.20
2022-09-24T09:55:32.528Z,6.07
2022-09-24T09:58:24.390Z,4.80
2022-09-24T10:01:16.800Z,4.63
2022-09-24T10:04:06.857Z,3.37
2022-09-24T10:07:05.325Z,6.13
2022-09-24T10:10:17.132Z,2.67
2022-09-24T10:13:12.380Z,2.77
2022-09-24T10:16:04.379Z,4.63
2022-09-24T10:18:53.027Z,3.60
2022-09-24T10:21:41.572Z,3.63
2022-09-24T10:24:30.536Z,4.07
2022-09-24T10:27:29.517Z,3.37
2022-09-24T10:30:34.875Z,5.57
2022-09-24T10:33:24.453Z,4.47
2022-09-24T10:36:19.270Z,5.10
2022-09-24T10:39:14.980Z,2.37
2022-09-24T10:42:03.205Z,3.13
2022-09-24T10:44:53.397Z,3.73
2022-09-24T10:47:50.902Z,4.67
2022-09-24T10:50:46.646Z,3.50
2022-09-24T10:53:51.816Z,5.03
2022-09-24T10:56:46.684Z,3.53
2022-09-24T10:59:54.905Z,3.30
2022-09-24T11:03:18.810Z,5.70
2022-09-24T11:06:18.321Z,3.70
2022-09-24T11:09:16.882Z,4.53
2022-09-24T11:12:15.277Z,2.70
2022-09-24T11:15:19.805Z,3.97
2022-09-24T11:18:27.194Z,4.17
2022-09-24T11:21:29.681Z,4.17
2022-09-24T11:24:40.093Z,4.03
2022-09-24T11:27:48.764Z,4.87
2022-09-24T11:30:50.379Z,3.63
2022-09-24T11:33:55.749Z,4.35
2022-09-24T11:36:56.766Z,4.60
2022-09-24T11:40:03.504Z,2.83
2022-09-24T11:43:07.704Z,4.73
2022-09-24T11:46:12.022Z,4.30
2022-09-24T11:49:22.447Z,4.17
2022-09-24T11:52:14.717Z,5.03
2022-09-24T11:55:12.891Z,4.60
2022-09-24T11:58:13.931Z,4.23
2022-09-24T12:01:11.044Z,4.47
2022-09-24T12:04:06.213Z,3.50
2022-09-24T12:07:01.614Z,2.63
2022-09-24T12:09:55.985Z,4.77
2022-09-24T12:12:49.540Z,5.20
2022-09-24T12:15:47.204Z,2.03
2022-09-24T12:18:40.388Z,3.63
2022-09-24T12:21:34.940Z,2.63
2022-09-24T12:24:30.082Z,4.07
2022-09-24T12:27:22.662Z,3.97
2022-09-24T12:30:44.243Z,3.97
2022-09-24T12:33:38.285Z,5.00
2022-09-24T12:36:38.388Z,5.37
2022-09-24T12:39:33.432Z,5.10
2022-09-24T12:42:23.958Z,4.03
2022-09-24T12:45:16.654Z,5.97
2022-09-24T12:48:05.653Z,5.27
2022-09-24T12:51:00.699Z,4.77
2022-09-24T12:53:58.523Z,4.10
2022-09-24T12:56:47.280Z,4.80
2022-09-24T12:59:46.427Z,4.87
2022-09-24T13:02:47.138Z,4.13
2022-09-24T13:05:48.360Z,4.07
2022-09-24T13:08:43.213Z,4.63
2022-09-24T13:11:36.523Z,5.47
2022-09-24T13:14:29.532Z,6.73
2022-09-24T13:17:18.705Z,7.10
2022-09-24T13:20:16.456Z,4.80
2022-09-24T13:23:31.475Z,5.27
2022-09-24T13:26:33.642Z,5.07
2022-09-24T13:29:25.899Z,5.37
2022-09-24T13:32:19.619Z,4.30
2022-09-24T13:35:23.365Z,5.03
2022-09-24T13:38:21.567Z,4.60
2022-09-24T13:41:24.833Z,7.33
2022-09-24T13:44:19.494Z,6.90
2022-09-24T13:47:16.848Z,7.67
2022-09-24T13:50:15.475Z,4.67
2022-09-24T13:53:07.782Z,4.37
2022-09-24T13:55:59.663Z,4.73
2022-09-24T14:01:42.058Z,6.63
2022-09-24T14:04:32.607Z,7.93
2022-09-24T14:07:23.358Z,4.40
2022-09-24T14:10:14.991Z,4.67
2022-09-24T14:13:13.999Z,4.17
2022-09-24T14:16:10.899Z,5.83
2022-09-24T14:19:05.106Z,6.90
2022-09-24T14:21:56.963Z,5.43
2022-09-24T14:24:51.744Z,6.83
2022-09-24T14:27:45.328Z,9.00
2022-09-24T14:30:36.973Z,7.00
2022-09-24T14:33:28.556Z,5.27
2022-09-24T14:36:18.017Z,3.80
2022-09-24T14:39:07.651Z,6.13
2022-09-24T14:41:58.992Z,5.63
2022-09-24T14:44:48.983Z,4.27
2022-09-24T14:47:39.141Z,4.47
2022-09-24T14:50:37.360Z,5.60
2022-09-24T14:53:30.212Z,5.40
2022-09-24T14:56:21.628Z,6.90
2022-09-24T14:59:26.343Z,6.28
2022-09-24T15:02:21.491Z,5.63
2022-09-24T15:05:11.249Z,7.13
2022-09-24T15:08:29.281Z,5.93
2022-09-24T15:11:19.060Z,5.97
2022-09-24T15:14:24.738Z,5.87
2022-09-24T15:17:23.559Z,4.97
2022-09-24T15:20:14.001Z,5.20
2022-09-24T15:23:02.138Z,7.87
2022-09-24T15:25:50.892Z,6.47
2022-09-24T15:28:39.854Z,4.17
2022-09-24T15:31:29.272Z,9.10
2022-09-24T15:34:24.332Z,4.77
2022-09-24T15:37:16.295Z,5.17
2022-09-24T15:40:16.844Z,5.07
2022-09-24T15:43:06.160Z,5.70
2022-09-24T15:45:55.322Z,5.97
2022-09-24T15:48:45.920Z,5.53
2022-09-24T15:51:35.292Z,5.27
2022-09-24T15:54:24.660Z,7.00
2022-09-24T15:57:14.562Z,6.63
2022-09-24T16:00:03.814Z,8.93
2022-09-24T16:02:55.632Z,6.93
2022-09-24T16:05:44.193Z,5.47
2022-09-24T16:08:32.736Z,5.80
2022-09-24T16:11:24.155Z,7.17
2022-09-24T16:14:13.316Z,6.47
2022-09-24T16:17:02.073Z,6.93
2022-09-24T16:19:50.580Z,7.57
2022-09-24T16:22:38.765Z,19.37
2022-09-24T16:25:28.031Z,24.73
2022-09-24T16:28:16.891Z,11.67
2022-09-24T16:31:08.189Z,13.57
2022-09-24T16:33:57.881Z,16.37
2022-09-24T16:36:47.051Z,17.47
2022-09-24T16:39:35.535Z,18.50
2022-09-24T16:42:25.990Z,25.13
2022-09-24T16:45:14.544Z,15.47
2022-09-24T16:48:04.114Z,16.77
2022-09-24T16:50:52.664Z,15.30
2022-09-24T16:53:43.930Z,15.97
2022-09-24T16:56:38.363Z,12.87
2022-09-24T16:59:27.142Z,17.67
2022-09-24T17:02:15.931Z,14.53
2022-09-24T17:05:06.271Z,13.63
2022-09-24T17:07:54.411Z,15.37
2022-09-24T17:10:51.577Z,18.83
2022-09-24T17:13:40.521Z,20.37
2022-09-24T17:16:30.522Z,18.43
2022-09-24T17:19:18.850Z,50.40
2022-09-24T17:22:07.811Z,51.10
2022-09-24T17:24:56.567Z,64.93
2022-09-24T17:27:45.123Z,60.20
2022-09-24T17:30:33.869Z,41.93
2022-09-24T17:33:42.369Z,32.27
2022-09-24T17:36:33.330Z,27.60
2022-09-24T17:39:22.594Z,21.37
2022-09-24T17:42:11.651Z,21.40
2022-09-24T17:45:00.802Z,18.63
2022-09-24T17:47:59.928Z,19.20
2022-09-24T17:50:55.749Z,16.00
2022-09-24T17:53:44.467Z,13.63
2022-09-24T17:56:38.302Z,12.43
2022-09-24T17:59:27.910Z,17.43
2022-09-24T18:02:16.517Z,18.53
2022-09-24T18:05:06.849Z,14.73
2022-09-24T18:07:55.402Z,16.60
2022-09-24T18:10:43.952Z,15.53
2022-09-24T18:13:33.903Z,22.97
2022-09-24T18:16:24.342Z,27.90
2022-09-24T18:19:15.338Z,23.83
2022-09-24T18:22:05.938Z,25.00
2022-09-24T18:24:54.690Z,27.57
2022-09-24T18:27:44.881Z,23.87
2022-09-24T18:30:33.850Z,24.60
2022-09-24T18:33:24.576Z,26.90
2022-09-24T18:36:14.947Z,28.50
2022-09-24T18:39:04.405Z,25.03
2022-09-24T18:41:53.773Z,24.63
2022-09-24T18:44:43.760Z,28.03
2022-09-24T18:47:32.772Z,21.50
2022-09-24T18:50:21.267Z,24.63
2022-09-24T18:53:10.655Z,20.90
2022-09-24T18:56:03.689Z,26.65
2022-09-24T18:58:57.362Z,23.17
2022-09-24T19:01:47.225Z,22.50
2022-09-24T19:04:36.095Z,28.37
2022-09-24T19:07:24.624Z,21.47
2022-09-24T19:10:13.406Z,23.60
2022-09-24T19:13:02.159Z,28.33
2022-09-24T19:15:51.388Z,29.53
2022-09-24T19:18:41.220Z,32.97
2022-09-24T19:21:30.063Z,36.63
2022-09-24T19:24:19.839Z,33.80
2022-09-24T19:27:08.388Z,36.70
2022-09-24T19:29:56.735Z,35.37
2022-09-24T19:32:45.493Z,45.70
2022-09-24T19:35:34.858Z,34.93
2022-09-24T19:38:26.274Z,40.23
2022-09-24T19:41:18.639Z,40.33
2022-09-24T19:44:09.210Z,39.23
2022-09-24T19:46:58.286Z,45.37
2022-09-24T19:49:47.444Z,43.77
2022-09-24T19:52:36.605Z,43.60
2022-09-24T19:55:28.612Z,51.67
2022-09-24T19:58:17.389Z,56.98
2022-09-24T20:01:11.281Z,66.27
2022-09-24T20:04:05.531Z,61.55
2022-09-24T20:06:54.508Z,66.13
2022-09-24T20:09:42.653Z,65.47
2022-09-24T20:12:32.427Z,63.17
2022-09-24T20:15:21.590Z,62.47
2022-09-24T20:18:12.394Z,64.60
2022-09-24T20:21:05.048Z,67.20
2022-09-24T20:23:55.391Z,63.60
2022-09-24T20:27:02.008Z,68.93
2022-09-24T20:29:53.278Z,66.20
2022-09-24T20:32:43.636Z,63.57
2022-09-24T20:35:32.378Z,61.17
2022-09-24T20:38:21.325Z,62.67
2022-09-24T20:41:11.515Z,66.30
2022-09-24T20:44:00.269Z,63.20
2022-09-24T20:46:48.419Z,62.80
2022-09-24T20:49:36.958Z,60.37
2022-09-24T20:52:25.306Z,60.37
2022-09-24T20:55:15.218Z,55.80
2022-09-24T20:58:04.253Z,58.17
2022-09-24T21:00:54.440Z,55.37
2022-09-24T21:03:44.927Z,55.43
2022-09-24T21:06:36.909Z,53.53
2022-09-24T21:09:26.226Z,55.93
2022-09-24T21:12:14.985Z,53.23
2022-09-24T21:15:03.536Z,49.63
2022-09-24T21:18:18.342Z,53.17
2022-09-24T21:21:05.825Z,42.70
2022-09-24T21:23:56.857Z,42.50
2022-09-24T21:26:46.202Z,33.37
2022-09-24T21:29:35.542Z,30.07
2022-09-24T21:32:24.533Z,27.47
2022-09-24T21:35:12.554Z,24.13
2022-09-24T21:38:01.224Z,26.33
2022-09-24T21:40:55.176Z,22.03
2022-09-24T21:43:44.058Z,20.03
2022-09-24T21:46:34.281Z,23.00
2022-09-24T21:49:23.200Z,20.27
2022-09-24T21:52:12.164Z,18.50
2022-09-24T21:55:01.119Z,23.23
2022-09-24T21:57:49.672Z,19.67
2022-09-24T22:00:38.433Z,25.10
2022-09-24T22:03:26.974Z,27.20
2022-09-24T22:06:15.941Z,28.37
2022-09-24T22:09:07.356Z,26.00
2022-09-24T22:11:57.338Z,25.87
2022-09-24T22:14:45.494Z,29.50
2022-09-24T22:17:34.228Z,27.30
2022-09-24T22:20:22.343Z,26.47
2022-09-24T22:23:12.359Z,23.43
2022-09-24T22:26:01.109Z,24.97
2022-09-24T22:28:50.069Z,21.20
2022-09-24T22:31:39.232Z,21.43
2022-09-24T22:34:46.828Z,23.30
2022-09-24T22:37:35.996Z,21.47
2022-09-24T22:40:25.087Z,23.20
2022-09-24T22:43:13.670Z,20.13
2022-09-24T22:46:05.175Z,20.20
2022-09-24T22:48:53.263Z,18.67
2022-09-24T22:51:42.224Z,21.93
2022-09-24T22:54:31.388Z,20.37
2022-09-24T22:57:20.756Z,20.10
2022-09-24T23:00:14.600Z,20.80
2022-09-24T23:03:04.204Z,19.00
2022-09-24T23:05:52.961Z,21.37
2022-09-24T23:08:42.332Z,18.97
2022-09-24T23:11:34.492Z,19.63
2022-09-24T23:14:23.324Z,19.60
2022-09-24T23:17:12.147Z,18.13
2022-09-24T23:20:02.060Z,22.90
2022-09-24T23:22:50.615Z,22.67
2022-09-24T23:25:39.574Z,22.37
2022-09-24T23:28:28.731Z,23.13
2022-09-24T23:31:18.691Z,24.93
2022-09-24T23:34:08.085Z,24.73
2022-09-24T23:36:57.044Z,23.97
2022-09-24T23:39:46.653Z,24.67
2022-09-24T23:42:36.188Z,24.80
2022-09-24T23:45:24.534Z,24.10
2022-09-24T23:48:14.980Z,26.00
2022-09-24T23:51:03.888Z,22.70
2022-09-24T23:53:53.255Z,23.20
2022-09-24T23:56:42.626Z,23.07
2022-09-24T23:59:31.475Z,24.43
